createdAt,value
2019-06-07T00:01:48.779Z,85.56
2019-06-07T00:04:21.308Z,85.72
2019-06-07T00:06:49.475Z,85.89
2019-06-07T00:09:22.699Z,86.27
2019-06-07T00:11:50.257Z,86.04
2019-06-07T00:14:21.194Z,86.25
2019-06-07T00:16:50.732Z,86.18
2019-06-07T00:19:20.197Z,86.29
2019-06-07T00:24:21.871Z,86.43
2019-06-07T00:26:58.450Z,86.40
2019-06-07T00:29:22.961Z,86.77
2019-06-07T00:31:52.473Z,86.31
2019-06-07T00:34:23.018Z,86.44
2019-06-07T00:36:52.879Z,86.37
2019-06-07T00:39:25.610Z,86.33
2019-06-07T00:41:53.626Z,86.41
2019-06-07T00:44:23.630Z,86.51
2019-06-07T00:46:53.170Z,86.66
2019-06-07T00:49:40.149Z,86.95
2019-06-07T00:51:54.029Z,87.34
2019-06-07T00:54:24.853Z,87.09
2019-06-07T00:56:54.606Z,87.12
2019-06-07T00:59:29.140Z,86.95
2019-06-07T01:01:55.452Z,86.81
2019-06-07T01:04:26.073Z,86.94
2019-06-07T01:06:56.140Z,86.76
2019-06-07T01:09:25.822Z,87.28
2019-06-07T01:11:55.427Z,86.65
2019-06-07T01:14:28.086Z,86.43
2019-06-07T01:17:07.065Z,86.48
2019-06-07T01:19:27.921Z,86.47
2019-06-07T01:21:57.876Z,86.62
2019-06-07T01:24:28.026Z,86.42
2019-06-07T01:26:57.824Z,86.20
2019-06-07T01:29:30.348Z,86.19
2019-06-07T01:31:58.487Z,85.92
2019-06-07T01:34:28.929Z,86.35
2019-06-07T01:36:58.607Z,86.18
2019-06-07T01:39:31.072Z,86.22
2019-06-07T01:41:59.548Z,86.14
2019-06-07T01:44:31.038Z,85.88
2019-06-07T01:47:00.221Z,85.77
2019-06-07T01:49:30.085Z,85.96
2019-06-07T01:51:59.833Z,86.53
2019-06-07T01:57:00.525Z,86.65
2019-06-07T01:59:31.586Z,85.81
2019-06-07T02:02:01.263Z,85.89
2019-06-07T02:04:33.224Z,85.87
2019-06-07T02:07:02.008Z,85.30
2019-06-07T02:09:32.188Z,85.74
2019-06-07T02:12:01.844Z,85.72
2019-06-07T02:14:33.561Z,85.38
2019-06-07T02:17:02.661Z,85.22
2019-06-07T02:19:33.364Z,85.08
2019-06-07T02:22:03.193Z,84.91
2019-06-07T02:24:36.152Z,85.37
2019-06-07T02:27:03.996Z,86.02
2019-06-07T02:29:33.865Z,85.79
2019-06-07T02:32:03.652Z,85.26
2019-06-07T02:34:38.735Z,84.90
2019-06-07T02:37:04.491Z,84.79
2019-06-07T02:39:40.389Z,84.59
2019-06-07T02:42:06.641Z,84.66
2019-06-07T02:44:39.664Z,84.49
2019-06-07T02:47:07.325Z,84.77
2019-06-07T02:49:40.883Z,85.21
2019-06-07T02:52:08.029Z,85.75
2019-06-07T02:54:40.365Z,85.72
2019-06-07T02:57:08.798Z,86.22
2019-06-07T03:00:04.380Z,85.87
2019-06-07T03:02:09.461Z,85.86
2019-06-07T03:04:43.838Z,85.92
2019-06-07T03:07:13.034Z,86.25
2019-06-07T03:09:43.291Z,86.29
2019-06-07T03:12:13.867Z,86.63
2019-06-07T03:14:44.720Z,87.15
2019-06-07T03:17:30.463Z,87.30
2019-06-07T03:20:02.513Z,88.06
2019-06-07T03:22:40.577Z,88.59
2019-06-07T03:25:07.364Z,88.13
2019-06-07T03:27:48.634Z,88.19
2019-06-07T03:30:36.299Z,87.78
2019-06-07T03:32:47.405Z,88.44
2019-06-07T03:35:12.504Z,88.30
2019-06-07T03:37:43.040Z,88.78
2019-06-07T03:40:12.795Z,89.32
2019-06-07T03:42:42.297Z,89.79
2019-06-07T03:45:11.865Z,89.68
2019-06-07T03:47:42.654Z,89.38
2019-06-07T03:50:12.535Z,89.08
2019-06-07T03:52:42.136Z,89.04
2019-06-07T03:55:11.591Z,89.47
2019-06-07T03:58:29.972Z,89.94
2019-06-07T04:00:12.413Z,90.09
2019-06-07T04:02:46.061Z,90.21
2019-06-07T04:05:20.436Z,90.43
2019-06-07T04:07:49.876Z,91.04
2019-06-07T04:10:19.333Z,91.43
2019-06-07T04:12:48.903Z,91.41
2019-06-07T04:15:18.372Z,91.10
2019-06-07T04:18:01.350Z,90.98
2019-06-07T04:20:19.258Z,90.58
2019-06-07T04:22:49.572Z,90.00
2019-06-07T04:25:19.021Z,89.92
2019-06-07T04:27:48.578Z,90.14
2019-06-07T04:30:34.169Z,90.96
2019-06-07T04:33:01.478Z,91.03
2019-06-07T04:35:32.944Z,90.85
2019-06-07T04:38:02.799Z,90.51
2019-06-07T04:40:34.397Z,90.80
2019-06-07T04:43:04.756Z,90.67
2019-06-07T04:45:41.805Z,89.91
2019-06-07T04:48:07.675Z,89.66
2019-06-07T04:50:43.478Z,89.03
2019-06-07T04:53:09.937Z,89.04
2019-06-07T04:55:41.588Z,89.08
2019-06-07T04:58:10.584Z,88.35
2019-06-07T05:00:55.649Z,88.97
2019-06-07T05:03:11.252Z,88.34
2019-06-07T05:05:43.238Z,86.68
2019-06-07T05:08:27.524Z,87.55
2019-06-07T05:10:44.064Z,87.78
2019-06-07T05:13:13.732Z,87.62
2019-06-07T05:15:43.194Z,85.50
2019-06-07T05:18:12.683Z,84.10
2019-06-07T05:20:44.635Z,83.46
2019-06-07T05:23:59.545Z,80.82
2019-06-07T05:25:45.675Z,79.36
2019-06-07T05:28:15.148Z,78.88
2019-06-07T05:31:03.822Z,80.57
2019-06-07T05:33:16.457Z,78.03
2019-06-07T05:35:45.918Z,78.15
2019-06-07T05:38:15.462Z,77.70
2019-06-07T05:40:48.521Z,78.40
2019-06-07T05:43:24.805Z,77.76
2019-06-07T05:45:54.301Z,77.33
2019-06-07T05:48:23.759Z,75.73
2019-06-07T05:50:57.044Z,75.84
2019-06-07T05:53:24.439Z,75.83
2019-06-07T05:55:54.086Z,76.19
2019-06-07T05:58:23.523Z,75.85
2019-06-07T06:00:53.015Z,76.25
2019-06-07T06:03:22.487Z,75.70
2019-06-07T06:05:55.384Z,75.74
2019-06-07T06:08:23.230Z,73.79
2019-06-07T06:10:52.708Z,73.92
2019-06-07T06:13:22.166Z,74.29
2019-06-07T06:16:01.122Z,73.12
2019-06-07T06:18:22.895Z,73.00
2019-06-07T06:21:15.686Z,72.52
2019-06-07T06:23:24.438Z,74.46
2019-06-07T06:25:57.643Z,72.70
2019-06-07T06:28:25.133Z,72.02
2019-06-07T06:30:54.792Z,72.53
2019-06-07T06:33:33.481Z,73.23
2019-06-07T06:35:55.478Z,73.13
2019-06-07T06:38:25.390Z,73.02
2019-06-07T06:41:12.150Z,71.15
2019-06-07T06:43:26.086Z,72.05
2019-06-07T06:45:55.575Z,71.37
2019-06-07T06:48:25.035Z,69.28
2019-06-07T06:50:54.553Z,70.07
2019-06-07T06:53:24.046Z,72.31
2019-06-07T06:55:53.495Z,70.68
2019-06-07T06:58:22.952Z,70.72
2019-06-07T07:01:05.466Z,68.14
2019-06-07T07:03:56.618Z,63.63
2019-06-07T07:05:56.514Z,65.19
2019-06-07T07:08:25.979Z,65.79
2019-06-07T07:10:55.480Z,67.31
2019-06-07T07:13:25.084Z,67.60
2019-06-07T07:15:57.852Z,68.52
2019-06-07T07:18:25.806Z,66.92
2019-06-07T07:20:57.406Z,68.40
2019-06-07T07:23:26.606Z,67.55
2019-06-07T07:25:59.386Z,66.41
2019-06-07T07:28:27.321Z,67.30
2019-06-07T07:30:57.458Z,65.17
2019-06-07T07:34:19.945Z,64.49
2019-06-07T07:36:35.202Z,62.26
2019-06-07T07:38:29.683Z,63.50
2019-06-07T07:41:13.810Z,64.19
2019-06-07T07:43:30.333Z,67.04
2019-06-07T07:46:03.530Z,65.83
2019-06-07T07:48:31.292Z,61.15
2019-06-07T07:51:03.152Z,60.99
2019-06-07T07:53:47.853Z,58.92
2019-06-07T07:56:03.342Z,54.46
2019-06-07T07:58:32.910Z,55.51
2019-06-07T08:01:10.141Z,55.36
2019-06-07T08:03:33.594Z,57.06
2019-06-07T08:06:03.097Z,57.98
2019-06-07T08:08:32.613Z,59.95
2019-06-07T08:11:02.584Z,61.36
2019-06-07T08:13:32.291Z,64.16
2019-06-07T08:16:10.570Z,64.18
2019-06-07T08:18:33.128Z,61.92
2019-06-07T08:21:21.402Z,60.52
2019-06-07T08:23:33.904Z,59.77
2019-06-07T08:26:03.567Z,57.27
2019-06-07T08:28:33.026Z,57.54
2019-06-07T08:31:06.871Z,57.33
2019-06-07T08:33:33.715Z,56.87
2019-06-07T08:36:14.092Z,58.83
2019-06-07T08:38:47.689Z,60.02
2019-06-07T08:41:11.996Z,57.77
2019-06-07T08:43:37.086Z,59.16
2019-06-07T08:46:07.878Z,57.21
2019-06-07T08:48:37.697Z,55.52
2019-06-07T08:51:08.518Z,57.34
2019-06-07T08:53:38.366Z,58.21
2019-06-07T08:56:11.157Z,56.36
2019-06-07T08:58:39.229Z,56.81
2019-06-07T09:01:09.259Z,52.67
2019-06-07T09:03:39.339Z,57.11
2019-06-07T09:06:53.686Z,51.89
2019-06-07T09:08:40.195Z,54.02
2019-06-07T09:11:11.379Z,55.04
2019-06-07T09:13:41.234Z,47.03
2019-06-07T09:16:10.927Z,50.38
2019-06-07T09:18:43.708Z,55.50
2019-06-07T09:21:11.772Z,53.69
2019-06-07T09:23:42.316Z,51.63
2019-06-07T09:26:18.202Z,51.17
2019-06-07T09:28:44.815Z,53.83
2019-06-07T09:31:14.393Z,54.13
2019-06-07T09:33:44.131Z,53.68
2019-06-07T09:36:13.918Z,54.55
2019-06-07T09:38:44.468Z,52.04
2019-06-07T09:41:13.928Z,53.55
2019-06-07T09:46:16.314Z,55.25
2019-06-07T09:51:19.910Z,57.63
2019-06-07T09:53:48.431Z,58.18
2019-06-07T09:56:17.879Z,57.44
2019-06-07T09:58:53.173Z,56.51
2019-06-07T10:01:18.852Z,54.17
2019-06-07T10:03:48.313Z,51.62
2019-06-07T10:06:17.839Z,51.88
2019-06-07T10:11:18.544Z,54.58
2019-06-07T10:13:48.091Z,51.60
2019-06-07T10:16:17.616Z,53.77
2019-06-07T10:18:47.145Z,50.89
2019-06-07T10:21:16.607Z,54.64
2019-06-07T10:23:46.155Z,50.38
2019-06-07T10:26:15.714Z,53.81
2019-06-07T10:28:45.184Z,51.12
2019-06-07T10:31:14.794Z,51.60
2019-06-07T10:33:44.237Z,50.49
2019-06-07T10:36:13.821Z,56.72
2019-06-07T10:38:44.015Z,56.67
2019-06-07T10:41:13.502Z,54.08
2019-06-07T10:43:43.039Z,55.02
2019-06-07T10:46:12.674Z,53.59
2019-06-07T10:48:42.220Z,52.54
2019-06-07T10:51:14.603Z,55.29
2019-06-07T10:53:42.877Z,55.35
2019-06-07T10:56:13.357Z,53.32
2019-06-07T10:58:43.072Z,51.92
2019-06-07T11:01:14.312Z,51.88
2019-06-07T11:03:43.816Z,51.11
2019-06-07T11:06:14.241Z,50.21
2019-06-07T11:08:44.050Z,51.56
2019-06-07T11:11:14.400Z,52.06
2019-06-07T11:13:44.364Z,52.39
2019-06-07T11:16:15.727Z,52.55
2019-06-07T11:18:45.425Z,55.28
2019-06-07T11:21:14.872Z,52.95
2019-06-07T11:23:44.470Z,54.74
2019-06-07T11:26:14.479Z,51.66
2019-06-07T11:28:44.187Z,55.15
2019-06-07T11:31:14.934Z,54.87
2019-06-07T11:33:44.679Z,53.15
2019-06-07T11:36:15.327Z,50.36
2019-06-07T11:38:45.023Z,51.53
2019-06-07T11:41:15.671Z,50.70
2019-06-07T11:43:45.371Z,48.55
2019-06-07T11:46:15.176Z,52.50
2019-06-07T11:48:44.704Z,50.83
2019-06-07T11:51:14.911Z,45.34
2019-06-07T11:53:44.583Z,46.93
2019-06-07T11:56:14.095Z,48.83
2019-06-07T11:58:43.736Z,47.50
2019-06-07T12:01:14.925Z,49.15
2019-06-07T12:03:44.487Z,54.37
2019-06-07T12:06:14.543Z,49.25
2019-06-07T12:08:44.473Z,47.34
2019-06-07T12:11:14.388Z,49.70
2019-06-07T12:13:44.180Z,47.87
2019-06-07T12:16:15.260Z,46.24
2019-06-07T12:18:45.098Z,50.11
2019-06-07T12:21:15.814Z,46.83
2019-06-07T12:23:45.350Z,48.89
2019-06-07T12:26:14.893Z,45.50
2019-06-07T12:28:44.479Z,39.10
2019-06-07T12:31:15.037Z,38.27
2019-06-07T12:33:44.877Z,38.34
2019-06-07T12:36:15.785Z,35.59
2019-06-07T12:38:45.533Z,37.14
2019-06-07T12:41:16.111Z,39.12
2019-06-07T12:43:45.721Z,38.50
2019-06-07T12:46:21.093Z,38.98
2019-06-07T12:48:46.493Z,40.46
2019-06-07T20:23:36.385Z,77.81
2019-06-07T20:26:06.940Z,78.27
2019-06-07T20:28:37.544Z,78.18
2019-06-07T20:31:08.315Z,78.08
2019-06-07T20:33:38.908Z,77.75
2019-06-07T20:36:09.457Z,78.47
2019-06-07T20:38:39.993Z,78.50
2019-06-07T20:41:10.543Z,77.83
2019-06-07T20:43:41.099Z,78.65
2019-06-07T20:46:11.692Z,78.97
2019-06-07T20:48:42.228Z,78.13
2019-06-07T20:51:12.724Z,78.38
2019-06-07T20:53:43.238Z,78.39
2019-06-07T20:56:13.750Z,78.75
2019-06-07T20:58:44.312Z,78.92
2019-06-07T21:01:14.858Z,80.21
2019-06-07T21:03:45.380Z,80.74
2019-06-07T21:06:15.879Z,81.69
2019-06-07T21:08:46.401Z,82.65
2019-06-07T21:11:16.897Z,81.87
2019-06-07T21:13:47.399Z,83.11
2019-06-07T21:16:17.961Z,83.04
2019-06-07T21:18:48.442Z,82.33
2019-06-07T21:21:19.049Z,82.45
2019-06-07T21:23:49.600Z,82.31
2019-06-07T21:26:20.120Z,83.02
2019-06-07T21:28:50.743Z,84.42
2019-06-07T21:31:21.333Z,88.98
2019-06-07T21:33:51.844Z,90.79
2019-06-07T21:36:22.336Z,92.42
2019-06-07T21:38:52.861Z,94.07
2019-06-07T21:41:23.357Z,95.27
2019-06-07T21:43:53.947Z,95.33
2019-06-07T21:46:24.444Z,95.53
2019-06-07T21:48:54.938Z,95.52
2019-06-07T21:51:25.465Z,96.25
2019-06-07T21:53:55.969Z,96.00
2019-06-07T21:56:26.453Z,96.27
2019-06-07T21:58:56.983Z,96.55
2019-06-07T22:01:30.010Z,97.08
2019-06-07T22:04:00.503Z,97.48
2019-06-07T22:06:31.005Z,97.42
2019-06-07T22:09:01.480Z,97.82
2019-06-07T22:11:31.270Z,98.40
2019-06-07T22:14:01.824Z,98.28
2019-06-07T22:16:32.304Z,98.73
2019-06-07T22:19:02.773Z,99.19
2019-06-07T22:21:33.294Z,99.31
2019-06-07T22:24:04.810Z,98.97
2019-06-07T22:26:35.388Z,99.11
2019-06-07T22:29:06.297Z,99.16
2019-06-07T22:31:36.862Z,99.03
2019-06-07T22:34:08.668Z,98.84
2019-06-07T22:36:39.265Z,99.05
2019-06-07T22:39:09.765Z,99.24
2019-06-07T22:41:40.317Z,99.32
2019-06-07T22:44:10.943Z,99.40
2019-06-07T22:46:41.428Z,99.67
2019-06-07T22:49:13.231Z,99.86
2019-06-07T22:51:43.829Z,100.00
2019-06-07T22:54:14.325Z,100.00
2019-06-07T22:56:58.814Z,100.00
2019-06-07T22:59:29.296Z,100.00
2019-06-07T23:02:00.075Z,100.00
2019-06-07T23:04:30.595Z,99.95
2019-06-07T23:07:01.099Z,99.77
2019-06-07T23:09:31.584Z,100.00
2019-06-07T23:12:02.126Z,100.00
2019-06-07T23:14:32.641Z,100.00
2019-06-07T23:17:03.167Z,100.00
2019-06-07T23:19:33.689Z,100.00
2019-06-07T23:22:04.302Z,100.00
2019-06-07T23:24:34.838Z,100.00
2019-06-07T23:27:05.419Z,100.00
2019-06-07T23:29:35.958Z,100.00
2019-06-07T23:32:06.481Z,100.00
2019-06-07T23:34:37.027Z,100.00
2019-06-07T23:37:07.614Z,100.00
2019-06-07T23:39:38.281Z,100.00
2019-06-07T23:42:08.873Z,100.00
2019-06-07T23:44:39.373Z,99.84
2019-06-07T23:47:11.980Z,100.00
2019-06-07T23:49:42.146Z,100.00
2019-06-07T23:52:13.848Z,100.00
2019-06-07T23:54:44.496Z,100.00
2019-06-07T23:57:16.014Z,100.00
2019-06-07T23:59:46.634Z,100.00
